createdAt,value
2022-08-12T00:01:12.847Z,78.50
2022-08-12T00:03:58.907Z,78.90
2022-08-12T00:06:47.458Z,79.00
2022-08-12T00:09:33.802Z,79.50
2022-08-12T00:12:20.514Z,79.40
2022-08-12T00:15:07.999Z,79.90
2022-08-12T00:17:55.713Z,80.30
2022-08-12T00:20:43.780Z,80.70
2022-08-12T00:23:36.098Z,80.90
2022-08-12T00:26:24.614Z,80.90
2022-08-12T00:29:11.822Z,81.30
2022-08-12T00:31:58.311Z,81.30
2022-08-12T00:34:49.282Z,81.60
2022-08-12T00:37:36.025Z,81.70
2022-08-12T00:40:23.602Z,81.80
2022-08-12T00:42:53.071Z,82.40
2022-08-12T00:45:22.981Z,82.40
2022-08-12T00:47:54.636Z,82.40
2022-08-12T00:50:27.139Z,82.80
2022-08-12T00:52:55.695Z,83.00
2022-08-12T00:55:24.272Z,83.30
2022-08-12T00:57:52.717Z,83.20
2022-08-12T01:00:24.514Z,83.10
2022-08-12T01:02:57.662Z,83.20
2022-08-12T01:05:45.432Z,83.30
2022-08-12T01:08:46.083Z,83.80
2022-08-12T01:11:33.192Z,84.30
2022-08-12T01:14:03.325Z,84.90
2022-08-12T01:16:31.979Z,85.00
2022-08-12T01:19:01.361Z,85.20
2022-08-12T01:22:17.177Z,85.90
2022-08-12T01:24:58.125Z,86.30
2022-08-12T01:27:27.849Z,86.70
2022-08-12T01:29:59.335Z,86.80
2022-08-12T01:32:30.133Z,87.00
2022-08-12T01:35:05.930Z,86.80
2022-08-12T01:37:37.950Z,87.10
2022-08-12T01:40:33.986Z,87.50
2022-08-12T01:43:06.971Z,87.60
2022-08-12T01:45:43.554Z,87.40
2022-08-12T01:48:20.746Z,87.10
2022-08-12T01:51:06.379Z,86.80
2022-08-12T01:53:50.274Z,87.00
2022-08-12T01:56:25.921Z,87.20
2022-08-12T01:59:16.079Z,87.30
2022-08-12T02:01:48.068Z,87.70
2022-08-12T02:04:42.553Z,88.30
2022-08-12T02:07:47.081Z,88.30
2022-08-12T02:10:49.371Z,88.90
2022-08-12T02:13:49.072Z,89.20
2022-08-12T02:16:33.230Z,89.60
2022-08-12T02:19:22.797Z,89.80
2022-08-12T02:22:01.021Z,90.30
2022-08-12T02:24:35.763Z,90.50
2022-08-12T02:27:06.187Z,91.00
2022-08-12T02:29:36.757Z,91.20
2022-08-12T02:32:06.624Z,91.70
2022-08-12T02:34:35.587Z,91.90
2022-08-12T02:37:05.185Z,91.90
2022-08-12T02:39:34.902Z,91.90
2022-08-12T02:42:06.818Z,92.10
2022-08-12T02:44:43.818Z,92.30
2022-08-12T02:48:00.385Z,92.40
2022-08-12T02:50:04.782Z,92.40
2022-08-12T02:52:35.438Z,92.60
2022-08-12T02:55:13.526Z,92.80
2022-08-12T02:58:06.846Z,92.50
2022-08-12T03:00:40.568Z,92.40
2022-08-12T03:03:11.853Z,92.30
2022-08-12T03:05:48.861Z,92.90
2022-08-12T03:08:32.044Z,93.00
2022-08-12T03:11:10.159Z,93.70
2022-08-12T03:13:47.144Z,94.00
2022-08-12T03:16:17.228Z,94.10
2022-08-12T03:18:47.083Z,94.70
2022-08-12T03:21:53.085Z,95.20
2022-08-12T03:24:09.498Z,95.60
2022-08-12T03:26:39.628Z,95.80
2022-08-12T03:29:19.389Z,96.20
2022-08-12T03:31:50.769Z,96.60
2022-08-12T03:34:27.026Z,96.90
2022-08-12T03:36:58.850Z,97.40
2022-08-12T03:39:40.944Z,97.90
2022-08-12T03:42:22.260Z,98.30
2022-08-12T03:45:16.030Z,98.80
2022-08-12T03:48:18.614Z,99.50
2022-08-12T03:51:06.414Z,99.30
2022-08-12T03:53:53.426Z,99.90
2022-08-12T03:56:39.521Z,99.90
2022-08-12T03:59:26.793Z,99.90
2022-08-12T04:01:58.063Z,99.90
2022-08-12T04:04:35.000Z,99.90
2022-08-12T04:07:08.242Z,99.90
2022-08-12T04:09:40.033Z,99.90
2022-08-12T04:12:27.177Z,99.90
2022-08-12T04:15:03.443Z,99.90
2022-08-12T04:17:33.223Z,99.90
2022-08-12T04:20:04.067Z,99.90
2022-08-12T04:22:33.092Z,99.90
2022-08-12T04:25:02.628Z,99.90
2022-08-12T04:27:32.407Z,99.90
2022-08-12T04:30:21.253Z,99.90
2022-08-12T04:32:50.652Z,99.90
2022-08-12T04:35:21.865Z,99.90
2022-08-12T04:37:59.364Z,99.90
2022-08-12T04:40:31.694Z,99.90
2022-08-12T04:43:02.295Z,99.90
2022-08-12T04:45:33.086Z,99.90
2022-08-12T04:48:02.826Z,99.80
2022-08-12T04:50:36.081Z,99.90
2022-08-12T04:53:06.686Z,99.90
2022-08-12T04:55:38.984Z,99.90
2022-08-12T04:58:08.854Z,99.50
2022-08-12T05:00:39.367Z,98.80
2022-08-12T05:03:08.952Z,98.70
2022-08-12T05:05:40.945Z,98.70
2022-08-12T05:08:17.933Z,98.50
2022-08-12T05:10:48.960Z,98.60
2022-08-12T05:13:20.578Z,98.50
2022-08-12T05:16:04.480Z,98.40
2022-08-12T05:18:39.168Z,98.20
2022-08-12T05:21:12.388Z,98.00
2022-08-12T05:23:43.088Z,98.00
2022-08-12T05:26:12.517Z,98.00
2022-08-12T05:28:41.384Z,97.80
2022-08-12T05:31:09.926Z,97.40
2022-08-12T05:33:40.482Z,97.00
2022-08-12T05:36:12.811Z,96.90
2022-08-12T05:39:00.575Z,96.60
2022-08-12T05:41:31.350Z,96.30
2022-08-12T05:44:01.964Z,95.80
2022-08-12T05:46:32.089Z,95.40
2022-08-12T05:49:02.075Z,95.10
2022-08-12T05:51:40.178Z,94.80
2022-08-12T05:54:11.997Z,94.40
2022-08-12T05:56:43.872Z,94.20
2022-08-12T05:59:15.425Z,93.70
2022-08-12T06:02:11.254Z,92.90
2022-08-12T06:04:34.802Z,91.80
2022-08-12T06:07:59.518Z,90.30
2022-08-12T06:10:07.170Z,89.10
2022-08-12T06:12:38.900Z,88.50
2022-08-12T06:15:12.351Z,87.80
2022-08-12T06:17:41.221Z,87.70
2022-08-12T06:20:25.793Z,87.10
2022-08-12T06:23:02.091Z,86.30
2022-08-12T06:25:31.213Z,85.50
2022-08-12T06:28:07.950Z,84.60
2022-08-12T06:30:39.797Z,84.20
2022-08-12T06:33:22.213Z,84.20
2022-08-12T06:35:57.792Z,84.00
2022-08-12T06:38:31.585Z,83.50
2022-08-12T06:41:19.494Z,83.00
2022-08-12T06:44:05.799Z,82.00
2022-08-12T06:46:39.014Z,81.90
2022-08-12T06:49:09.088Z,81.00
2022-08-12T06:51:37.928Z,80.40
2022-08-12T06:54:08.036Z,79.40
2022-08-12T06:59:26.055Z,78.70
2022-08-12T07:02:22.414Z,77.80
2022-08-12T07:08:20.518Z,78.30
2022-08-12T07:11:34.127Z,77.50
2022-08-12T07:14:23.558Z,77.60
2022-08-12T07:21:06.408Z,76.60
2022-08-12T07:32:01.586Z,74.80
2022-08-12T07:34:31.350Z,74.10
2022-08-12T07:37:02.081Z,73.80
2022-08-12T07:39:33.663Z,73.20
2022-08-12T07:42:02.838Z,72.40
2022-08-12T07:44:33.265Z,72.00
2022-08-12T07:47:05.095Z,72.00
2022-08-12T07:50:05.113Z,70.70
2022-08-12T07:52:26.714Z,69.60
2022-08-12T07:54:56.327Z,69.90
2022-08-12T07:57:27.130Z,69.50
2022-08-12T08:00:06.219Z,68.50
2022-08-12T08:02:40.649Z,68.10
2022-08-12T08:05:11.897Z,68.50
2022-08-12T08:07:43.160Z,68.10
2022-08-12T08:10:14.137Z,67.00
2022-08-12T08:12:53.771Z,66.80
2022-08-12T08:15:38.655Z,66.10
2022-08-12T08:18:26.719Z,64.60
2022-08-12T08:20:58.575Z,63.90
2022-08-12T08:23:46.589Z,63.40
2022-08-12T08:26:17.107Z,62.60
2022-08-12T08:28:46.667Z,62.00
2022-08-12T08:31:17.127Z,61.50
2022-08-12T08:34:05.391Z,60.40
2022-08-12T08:36:39.825Z,60.30
2022-08-12T08:39:09.635Z,60.30
2022-08-12T08:42:16.292Z,60.60
2022-08-12T08:44:44.959Z,59.60
2022-08-12T08:47:15.276Z,59.20
2022-08-12T08:49:46.588Z,58.00
2022-08-12T08:52:40.043Z,58.00
2022-08-12T08:55:06.519Z,58.00
2022-08-12T08:57:43.763Z,57.60
2022-08-12T09:00:18.742Z,56.30
2022-08-12T09:02:59.378Z,55.10
2022-08-12T09:08:26.870Z,54.90
2022-08-12T09:12:06.985Z,55.40
2022-08-12T09:14:18.540Z,55.90
2022-08-12T09:16:51.387Z,54.30
2022-08-12T09:19:33.890Z,54.40
2022-08-12T09:22:09.100Z,54.30
2022-08-12T09:24:48.994Z,54.30
2022-08-12T09:27:19.987Z,53.80
2022-08-12T09:30:11.490Z,53.80
2022-08-12T09:33:05.130Z,53.50
2022-08-12T09:35:31.843Z,52.80
2022-08-12T09:38:28.882Z,52.90
2022-08-12T09:42:08.764Z,52.00
2022-08-12T09:44:07.016Z,51.40
2022-08-12T09:46:57.427Z,50.50
2022-08-12T09:49:27.677Z,49.40
2022-08-12T09:51:57.464Z,49.20
2022-08-12T09:54:33.489Z,48.90
2022-08-12T09:58:46.968Z,48.40
2022-08-12T10:00:13.901Z,48.30
2022-08-12T10:03:07.114Z,48.40
2022-08-12T10:06:26.274Z,48.00
2022-08-12T10:08:35.172Z,47.70
2022-08-12T10:11:26.703Z,47.50
2022-08-12T10:14:02.655Z,46.90
2022-08-12T10:16:39.553Z,45.90
2022-08-12T10:19:23.660Z,45.70
2022-08-12T10:22:17.000Z,45.90
2022-08-12T10:25:17.091Z,46.20
2022-08-12T10:28:11.773Z,46.60
2022-08-12T10:30:58.360Z,47.40
2022-08-12T10:33:33.661Z,46.80
2022-08-12T10:36:17.328Z,47.10
2022-08-12T10:38:47.985Z,47.40
2022-08-12T10:41:57.419Z,47.50
2022-08-12T10:44:51.704Z,46.30
2022-08-12T10:47:26.268Z,45.20
2022-08-12T10:50:28.526Z,44.90
2022-08-12T10:53:04.190Z,45.20
2022-08-12T10:55:39.136Z,45.10
2022-08-12T10:58:14.612Z,44.50
2022-08-12T11:01:49.747Z,44.30
2022-08-12T11:04:26.007Z,44.40
2022-08-12T11:07:03.368Z,43.70
2022-08-12T11:09:41.810Z,43.20
2022-08-12T11:12:57.852Z,43.00
2022-08-12T11:15:21.270Z,43.40
2022-08-12T11:17:57.894Z,43.40
2022-08-12T11:20:33.415Z,43.00
2022-08-12T11:23:25.800Z,42.90
2022-08-12T11:26:05.513Z,43.20
2022-08-12T11:28:39.564Z,42.20
2022-08-12T11:31:14.248Z,42.20
2022-08-12T11:34:05.326Z,42.40
2022-08-12T11:36:40.773Z,42.50
2022-08-12T11:39:12.393Z,41.70
2022-08-12T11:41:43.106Z,41.90
2022-08-12T11:44:37.133Z,42.10
2022-08-12T11:47:04.162Z,42.70
2022-08-12T11:49:45.749Z,42.40
2022-08-12T11:52:51.347Z,42.90
2022-08-12T11:55:16.357Z,41.90
2022-08-12T11:58:47.772Z,41.60
2022-08-12T12:03:46.103Z,41.10
2022-08-12T12:06:22.543Z,40.80
2022-08-12T12:08:55.376Z,40.90
2022-08-12T12:11:49.179Z,40.50
2022-08-12T12:14:38.235Z,41.40
2022-08-12T12:17:09.242Z,41.80
2022-08-12T12:19:46.069Z,41.80
2022-08-12T12:22:32.014Z,41.20
2022-08-12T12:25:12.896Z,39.50
2022-08-12T12:28:04.821Z,39.40
2022-08-12T12:30:36.427Z,39.60
2022-08-12T12:33:17.738Z,39.90
2022-08-12T12:36:18.868Z,40.30
2022-08-12T12:39:00.186Z,40.10
2022-08-12T12:42:52.099Z,40.50
2022-08-12T12:44:51.008Z,40.20
2022-08-12T12:47:29.888Z,39.10
2022-08-12T12:50:45.464Z,38.80
2022-08-12T12:54:06.564Z,38.20
2022-08-12T12:56:16.535Z,38.80
2022-08-12T12:58:50.658Z,39.20
2022-08-12T13:01:26.695Z,38.60
2022-08-12T13:04:02.291Z,38.70
2022-08-12T13:06:38.242Z,38.40
2022-08-12T13:09:13.579Z,37.90
2022-08-12T13:11:47.624Z,38.00
2022-08-12T13:14:29.248Z,38.00
2022-08-12T13:17:03.310Z,37.70
2022-08-12T13:19:37.636Z,37.20
2022-08-12T13:22:23.811Z,37.70
2022-08-12T13:24:56.846Z,38.00
2022-08-12T13:27:35.049Z,38.60
2022-08-12T13:30:11.505Z,38.00
2022-08-12T13:32:43.281Z,37.80
2022-08-12T13:36:03.325Z,37.00
2022-08-12T13:38:26.645Z,36.70
2022-08-12T13:41:11.641Z,36.80
2022-08-12T13:43:43.079Z,36.90
2022-08-12T13:46:17.982Z,37.60
2022-08-12T13:48:49.724Z,37.90
2022-08-12T13:51:24.613Z,37.10
2022-08-12T13:53:58.379Z,37.40
2022-08-12T13:56:35.466Z,36.70
2022-08-12T13:59:08.807Z,36.90
2022-08-12T14:01:40.163Z,36.90
2022-08-12T14:04:11.742Z,36.80
2022-08-12T14:06:43.528Z,37.70
2022-08-12T14:09:17.318Z,37.00
2022-08-12T14:11:58.790Z,36.40
2022-08-12T14:14:35.650Z,36.70
2022-08-12T14:17:10.705Z,36.20
2022-08-12T14:20:01.063Z,36.00
2022-08-12T14:22:32.358Z,35.80
2022-08-12T14:25:03.698Z,36.40
2022-08-12T14:28:03.343Z,36.10
2022-08-12T14:30:29.583Z,35.20
2022-08-12T14:33:03.445Z,34.60
2022-08-12T14:35:41.195Z,34.70
2022-08-12T14:38:22.996Z,35.00
2022-08-12T14:40:58.289Z,34.90
2022-08-12T14:43:31.732Z,36.20
2022-08-12T14:46:17.124Z,36.20
2022-08-12T14:48:51.648Z,35.70
2022-08-12T14:52:55.823Z,35.90
2022-08-12T14:57:18.960Z,35.50
2022-08-12T15:04:00.019Z,35.90
2022-08-12T15:06:44.600Z,36.40
2022-08-12T15:09:29.014Z,36.00
2022-08-12T15:12:03.565Z,35.70
2022-08-12T15:14:35.318Z,35.80
2022-08-12T15:17:08.523Z,35.90
2022-08-12T15:20:30.766Z,35.70
2022-08-12T15:22:39.554Z,36.10
2022-08-12T15:25:18.387Z,36.70
2022-08-12T15:28:05.779Z,36.00
2022-08-12T15:30:40.848Z,35.30
2022-08-12T15:33:14.078Z,35.80
2022-08-12T15:35:53.251Z,35.90
2022-08-12T15:38:25.274Z,36.10
2022-08-12T15:40:56.859Z,36.70
2022-08-12T15:44:16.902Z,36.80
2022-08-12T15:46:25.747Z,36.40
2022-08-12T15:48:55.964Z,36.40
2022-08-12T15:51:59.141Z,36.30
2022-08-12T15:54:33.886Z,36.90
2022-08-12T15:57:08.132Z,36.30
2022-08-12T16:00:00.351Z,36.80
2022-08-12T16:02:29.490Z,36.90
2022-08-12T16:04:59.643Z,37.20
2022-08-12T16:07:32.690Z,37.00
2022-08-12T16:10:10.801Z,37.80
2022-08-12T16:12:43.544Z,37.90
2022-08-12T16:15:26.348Z,37.60
2022-08-12T16:18:18.227Z,37.10
2022-08-12T16:20:49.057Z,36.90
2022-08-12T16:23:26.975Z,36.70
2022-08-12T16:26:15.438Z,36.80
2022-08-12T16:28:50.166Z,37.20
2022-08-12T16:31:23.248Z,37.70
2022-08-12T16:33:59.233Z,37.80
2022-08-12T16:36:32.265Z,37.10
2022-08-12T16:39:03.928Z,36.70
2022-08-12T16:41:39.463Z,37.10
2022-08-12T16:44:10.096Z,36.80
2022-08-12T16:46:39.815Z,36.90
2022-08-12T16:49:13.759Z,36.80
2022-08-12T16:51:46.763Z,36.40
2022-08-12T16:54:26.572Z,36.40
2022-08-12T16:57:09.903Z,36.40
2022-08-12T16:59:54.467Z,37.00
2022-08-12T17:02:34.159Z,37.40
2022-08-12T17:05:05.417Z,37.60
2022-08-12T17:07:38.450Z,38.00
2022-08-12T17:10:18.348Z,38.00
2022-08-12T17:13:10.037Z,37.60
2022-08-12T17:15:56.989Z,38.50
2022-08-12T17:18:43.660Z,38.60
2022-08-12T17:21:40.220Z,38.40
2022-08-12T17:24:15.353Z,38.40
2022-08-12T17:26:49.589Z,38.00
2022-08-12T17:29:32.043Z,38.20
2022-08-12T17:32:11.369Z,38.30
2022-08-12T17:35:00.429Z,38.60
2022-08-12T17:37:29.845Z,39.50
2022-08-12T17:40:12.313Z,40.80
2022-08-12T17:42:48.752Z,41.90
2022-08-12T17:45:20.027Z,42.50
2022-08-12T17:48:01.467Z,43.40
2022-08-12T17:50:34.441Z,44.20
2022-08-12T17:53:04.185Z,44.70
2022-08-12T17:55:44.032Z,45.20
2022-08-12T17:58:37.056Z,45.50
2022-08-12T18:01:11.015Z,45.70
2022-08-12T18:04:05.770Z,46.30
2022-08-12T18:06:34.600Z,46.90
2022-08-12T18:09:08.912Z,47.50
2022-08-12T18:12:06.606Z,47.40
2022-08-12T18:14:41.596Z,47.70
2022-08-12T18:17:18.223Z,48.30
2022-08-12T18:20:06.245Z,48.00
2022-08-12T18:22:38.607Z,48.40
2022-08-12T18:26:12.572Z,48.40
2022-08-12T18:28:15.344Z,48.90
2022-08-12T18:30:53.096Z,48.90
2022-08-12T18:33:26.741Z,49.40
2022-08-12T18:35:58.334Z,49.60
2022-08-12T18:38:28.106Z,50.20
2022-08-12T18:41:22.567Z,50.50
2022-08-12T18:44:00.829Z,51.00
2022-08-12T18:46:53.856Z,51.60
2022-08-12T18:50:27.559Z,52.20
2022-08-12T18:58:05.806Z,53.20
2022-08-12T19:02:19.586Z,53.60
2022-08-12T19:04:07.183Z,54.30
2022-08-12T19:06:40.756Z,54.60
2022-08-12T19:09:16.533Z,55.00
2022-08-12T19:12:03.367Z,55.40
2022-08-12T19:14:38.369Z,56.00
2022-08-12T19:17:11.533Z,56.10
2022-08-12T19:19:50.579Z,56.70
2022-08-12T19:22:28.961Z,56.80
2022-08-12T19:25:59.548Z,57.10
2022-08-12T19:29:12.044Z,57.50
2022-08-12T19:31:58.372Z,58.20
2022-08-12T19:38:20.646Z,59.20
2022-08-12T19:41:25.166Z,59.60
2022-08-12T19:44:16.922Z,59.70
2022-08-12T19:47:19.754Z,60.10
2022-08-12T19:50:05.061Z,60.10
2022-08-12T19:56:05.706Z,61.20
2022-08-12T19:59:43.515Z,61.30
2022-08-12T20:02:38.109Z,61.90
2022-08-12T20:06:34.564Z,62.40
2022-08-12T20:12:59.329Z,63.40
2022-08-12T20:15:45.484Z,64.00
2022-08-12T20:18:57.993Z,64.30
2022-08-12T20:25:01.578Z,65.30
2022-08-12T20:28:16.701Z,66.00
2022-08-12T20:31:24.388Z,66.40
2022-08-12T20:38:06.907Z,67.00
2022-08-12T20:41:27.312Z,67.30
2022-08-12T20:48:02.011Z,68.20
2022-08-12T20:51:22.726Z,68.80
2022-08-12T20:54:50.273Z,69.00
2022-08-12T20:58:22.987Z,69.80
2022-08-12T21:00:54.500Z,69.60
2022-08-12T21:03:52.303Z,69.80
2022-08-12T21:06:42.782Z,70.30
2022-08-12T21:09:11.908Z,71.20
2022-08-12T21:13:39.123Z,71.60
2022-08-12T21:16:35.825Z,71.70
2022-08-12T21:18:50.518Z,71.80
2022-08-12T21:21:50.268Z,72.60
2022-08-12T21:24:57.087Z,73.00
2022-08-12T21:28:31.105Z,73.20
2022-08-12T21:32:36.488Z,73.40
2022-08-12T21:34:17.362Z,73.90
2022-08-12T21:40:51.951Z,73.40
2022-08-12T21:46:00.896Z,77.50
2022-08-12T21:46:53.380Z,78.40
2022-08-12T21:50:03.195Z,78.30
2022-08-12T21:54:10.016Z,78.30
2022-08-12T21:56:53.617Z,78.40
2022-08-12T21:59:41.165Z,77.30
2022-08-12T22:02:25.079Z,76.30
2022-08-12T22:05:20.474Z,76.40
2022-08-12T22:07:55.134Z,76.50
2022-08-12T22:10:28.327Z,77.90
2022-08-12T22:13:01.035Z,78.50
2022-08-12T22:15:30.504Z,77.60
2022-08-12T22:18:07.521Z,77.20
2022-08-12T22:20:40.366Z,77.90
2022-08-12T22:23:21.804Z,77.70
2022-08-12T22:25:57.524Z,77.80
2022-08-12T22:28:44.202Z,78.10
2022-08-12T22:31:15.189Z,78.20
2022-08-12T22:33:54.641Z,78.40
2022-08-12T22:36:30.919Z,78.30
2022-08-12T22:39:02.376Z,78.90
2022-08-12T22:41:48.555Z,78.90
2022-08-12T22:44:52.773Z,79.60
2022-08-12T22:47:54.368Z,79.80
2022-08-12T22:50:29.583Z,79.90
2022-08-12T22:53:15.638Z,80.30
2022-08-12T22:56:00.722Z,80.30
2022-08-12T22:58:40.531Z,80.30
2022-08-12T23:01:13.644Z,80.90
2022-08-12T23:03:49.661Z,80.70
2022-08-12T23:06:21.562Z,80.60
2022-08-12T23:08:53.296Z,80.30
2022-08-12T23:11:25.342Z,80.60
2022-08-12T23:13:57.479Z,80.60
2022-08-12T23:16:31.474Z,79.80
2022-08-12T23:19:10.015Z,80.10
2022-08-12T23:22:05.239Z,79.80
2022-08-12T23:24:53.693Z,79.90
2022-08-12T23:27:50.981Z,80.00
2022-08-12T23:30:30.970Z,79.90
2022-08-12T23:33:01.776Z,80.80
2022-08-12T23:35:53.897Z,80.60
2022-08-12T23:38:31.431Z,80.80
2022-08-12T23:41:05.911Z,81.50
2022-08-12T23:43:39.009Z,81.10
2022-08-12T23:46:11.200Z,80.80
2022-08-12T23:48:40.989Z,80.80
2022-08-12T23:51:22.319Z,80.90
2022-08-12T23:54:00.230Z,81.10
2022-08-12T23:56:33.996Z,80.80
2022-08-12T23:59:03.956Z,81.00
